createdAt,value
2017-11-23T00:00:31.767Z,11.53
2017-11-23T00:02:59.290Z,12.33
2017-11-23T00:05:26.836Z,12.40
2017-11-23T00:07:55.138Z,11.07
2017-11-23T00:10:22.682Z,10.93
2017-11-23T00:12:50.972Z,10.43
2017-11-23T00:15:18.533Z,12.43
2017-11-23T00:17:46.047Z,11.27
2017-11-23T00:20:13.604Z,11.90
2017-11-23T00:22:41.135Z,10.90
2017-11-23T00:25:09.495Z,0.70
2017-11-23T00:27:36.990Z,0.90
2017-11-23T00:30:04.506Z,0.70
2017-11-23T00:32:32.002Z,4.53
2017-11-23T00:34:59.541Z,0.60
2017-11-23T00:37:27.109Z,0.70
2017-11-23T00:39:54.666Z,0.60
2017-11-23T00:42:22.219Z,0.60
2017-11-23T00:44:49.775Z,1.00
2017-11-23T00:47:17.294Z,0.80
2017-11-23T00:49:44.857Z,1.00
2017-11-23T00:52:12.364Z,0.93
2017-11-23T00:54:39.910Z,0.90
2017-11-23T00:57:07.439Z,0.80
2017-11-23T00:59:34.961Z,0.80
2017-11-23T01:02:03.316Z,0.70
2017-11-23T01:04:31.619Z,0.80
2017-11-23T01:06:59.149Z,0.73
2017-11-23T01:09:26.664Z,0.70
2017-11-23T01:11:54.197Z,0.80
2017-11-23T01:14:21.718Z,0.60
2017-11-23T01:16:50.034Z,0.60
2017-11-23T01:19:17.554Z,0.80
2017-11-23T01:21:48.677Z,0.70
2017-11-23T01:24:16.966Z,0.60
2017-11-23T01:26:45.263Z,0.60
2017-11-23T01:29:12.815Z,0.80
2017-11-23T01:31:41.163Z,0.70
2017-11-23T01:34:08.694Z,0.60
2017-11-23T01:36:36.248Z,0.60
2017-11-23T01:39:03.779Z,4.73
2017-11-23T01:41:31.325Z,0.90
2017-11-23T01:43:59.637Z,0.70
2017-11-23T01:46:27.189Z,0.60
2017-11-23T01:48:54.733Z,0.60
2017-11-23T01:51:22.265Z,0.60
2017-11-23T01:53:49.772Z,0.80
2017-11-23T01:56:17.322Z,0.70
2017-11-23T01:58:45.606Z,0.60
2017-11-23T02:01:13.162Z,0.73
2017-11-23T02:03:40.704Z,0.70
2017-11-23T02:06:09.021Z,0.60
2017-11-23T02:08:36.526Z,0.60
2017-11-23T02:11:04.052Z,0.90
2017-11-23T02:13:31.564Z,0.90
2017-11-23T02:15:59.126Z,1.70
2017-11-23T02:18:26.646Z,0.70
2017-11-23T02:20:56.695Z,0.80
2017-11-23T02:23:24.241Z,0.90
2017-11-23T02:25:51.772Z,0.90
2017-11-23T02:28:19.326Z,0.90
2017-11-23T02:30:46.839Z,0.60
2017-11-23T02:33:14.419Z,0.70
2017-11-23T02:35:42.026Z,1.37
2017-11-23T02:38:09.582Z,0.70
2017-11-23T02:40:37.164Z,0.60
2017-11-23T02:43:04.677Z,1.87
2017-11-23T02:45:32.244Z,1.00
2017-11-23T02:47:59.770Z,0.80
2017-11-23T02:50:28.124Z,3.00
2017-11-23T02:52:55.611Z,0.70
2017-11-23T02:55:23.878Z,0.60
2017-11-23T02:57:52.186Z,0.73
2017-11-23T03:00:19.710Z,0.67
2017-11-23T03:02:47.327Z,0.90
2017-11-23T03:05:14.822Z,0.90
2017-11-23T03:07:42.388Z,1.07
2017-11-23T03:10:09.885Z,1.20
2017-11-23T03:12:37.408Z,1.10
2017-11-23T03:15:04.957Z,0.60
2017-11-23T03:17:32.465Z,1.03
2017-11-23T03:19:59.997Z,5.43
2017-11-23T03:22:28.274Z,0.70
2017-11-23T03:24:56.591Z,0.70
2017-11-23T03:27:24.089Z,0.60
2017-11-23T03:29:51.649Z,0.90
2017-11-23T03:32:41.402Z,3.53
2017-11-23T03:35:08.918Z,0.60
2017-11-23T03:37:37.337Z,0.70
2017-11-23T03:40:04.862Z,0.77
2017-11-23T03:42:33.139Z,0.60
2017-11-23T03:45:01.423Z,0.60
2017-11-23T03:47:28.939Z,1.50
2017-11-23T03:52:47.886Z,0.70
2017-11-23T03:55:15.458Z,4.37
2017-11-23T03:57:42.977Z,0.60
2017-11-23T04:00:10.586Z,0.70
2017-11-23T04:02:38.134Z,0.70
2017-11-23T04:05:05.641Z,0.80
2017-11-23T04:07:33.950Z,1.87
2017-11-23T04:10:01.451Z,0.60
2017-11-23T04:12:29.007Z,1.53
2017-11-23T04:14:56.510Z,1.13
2017-11-23T04:17:24.858Z,1.00
2017-11-23T04:19:52.429Z,0.63
2017-11-23T04:22:19.941Z,0.90
2017-11-23T04:24:47.508Z,0.60
2017-11-23T04:27:14.999Z,1.83
2017-11-23T04:29:42.503Z,0.60
2017-11-23T04:32:10.052Z,2.00
2017-11-23T04:34:37.737Z,3.50
2017-11-23T04:37:05.240Z,0.70
2017-11-23T04:39:32.811Z,1.00
2017-11-23T04:42:00.354Z,3.40
2017-11-23T04:44:27.904Z,1.80
2017-11-23T04:46:55.423Z,3.90
2017-11-23T04:49:22.949Z,0.90
2017-11-23T04:51:50.478Z,1.03
2017-11-23T04:54:17.995Z,0.77
2017-11-23T04:56:45.553Z,0.80
2017-11-23T04:59:13.814Z,1.53
2017-11-23T05:01:41.307Z,0.70
2017-11-23T05:04:08.862Z,3.03
2017-11-23T05:06:36.389Z,0.70
2017-11-23T05:09:03.951Z,0.67
2017-11-23T05:11:31.459Z,0.70
2017-11-23T05:13:59.746Z,0.60
2017-11-23T05:16:27.267Z,0.70
2017-11-23T05:18:55.545Z,0.70
2017-11-23T05:21:23.842Z,1.23
2017-11-23T05:23:51.340Z,0.90
2017-11-23T05:26:18.900Z,1.90
2017-11-23T05:28:46.395Z,1.70
2017-11-23T05:31:14.662Z,6.43
2017-11-23T05:33:42.232Z,0.70
2017-11-23T05:36:09.727Z,0.70
2017-11-23T05:38:37.274Z,0.60
2017-11-23T05:41:04.779Z,0.70
2017-11-23T05:43:32.320Z,1.90
2017-11-23T05:45:59.950Z,1.60
2017-11-23T05:48:27.490Z,1.90
2017-11-23T05:50:55.790Z,1.00
2017-11-23T05:53:23.326Z,1.40
2017-11-23T05:55:50.843Z,0.80
2017-11-23T05:58:18.365Z,0.60
2017-11-23T06:00:45.899Z,0.90
2017-11-23T06:03:13.430Z,0.60
2017-11-23T06:05:40.945Z,0.80
2017-11-23T06:08:09.273Z,1.20
2017-11-23T06:10:36.777Z,0.80
2017-11-23T06:13:05.093Z,0.83
2017-11-23T06:15:32.597Z,0.60
2017-11-23T06:18:00.133Z,3.80
2017-11-23T06:20:27.629Z,0.70
2017-11-23T06:22:55.162Z,2.83
2017-11-23T06:25:22.670Z,0.80
2017-11-23T06:27:50.202Z,8.40
2017-11-23T06:30:17.712Z,2.40
2017-11-23T06:32:45.246Z,0.60
2017-11-23T06:35:12.749Z,2.30
2017-11-23T06:37:40.292Z,0.77
2017-11-23T06:40:07.856Z,0.97
2017-11-23T06:42:35.407Z,0.80
2017-11-23T06:45:02.918Z,0.70
2017-11-23T06:47:30.418Z,1.07
2017-11-23T06:49:57.954Z,0.67
2017-11-23T06:52:26.256Z,0.70
2017-11-23T06:54:54.558Z,0.73
2017-11-23T06:57:22.050Z,0.80
2017-11-23T06:59:49.586Z,4.47
2017-11-23T07:02:17.094Z,0.60
2017-11-23T07:04:44.666Z,1.73
2017-11-23T07:07:12.167Z,0.70
2017-11-23T07:09:39.719Z,1.57
2017-11-23T07:12:07.298Z,0.83
2017-11-23T07:14:34.839Z,2.83
2017-11-23T07:17:02.343Z,1.43
2017-11-23T07:19:30.793Z,1.67
2017-11-23T07:21:58.327Z,0.90
2017-11-23T07:24:25.860Z,0.70
2017-11-23T07:26:53.349Z,1.97
2017-11-23T07:29:20.915Z,9.57
2017-11-23T07:31:48.422Z,9.17
2017-11-23T07:34:16.714Z,9.27
2017-11-23T07:36:44.244Z,9.30
2017-11-23T07:39:11.806Z,10.80
2017-11-23T07:41:39.421Z,10.53
2017-11-23T07:44:06.956Z,8.90
2017-11-23T07:46:34.469Z,9.47
2017-11-23T07:49:02.018Z,9.83
2017-11-23T07:51:29.567Z,10.60
2017-11-23T07:53:57.111Z,10.73
2017-11-23T07:56:24.760Z,10.80
2017-11-23T07:58:52.299Z,11.10
2017-11-23T08:01:20.579Z,10.10
2017-11-23T08:03:48.971Z,10.20
2017-11-23T08:06:16.517Z,8.83
2017-11-23T08:08:44.795Z,9.40
2017-11-23T08:11:13.116Z,8.23
2017-11-23T08:13:40.631Z,8.80
2017-11-23T08:16:08.165Z,9.33
2017-11-23T08:18:35.686Z,9.00
2017-11-23T08:21:03.319Z,9.50
2017-11-23T08:23:31.620Z,9.23
2017-11-23T08:25:59.155Z,6.17
2017-11-23T08:28:27.435Z,8.13
2017-11-23T08:30:55.745Z,8.33
2017-11-23T08:33:23.267Z,9.80
2017-11-23T08:35:51.603Z,8.73
2017-11-23T08:38:19.160Z,8.13
2017-11-23T08:40:46.744Z,8.00
2017-11-23T08:43:14.621Z,7.70
2017-11-23T08:45:42.191Z,8.60
2017-11-23T08:48:09.763Z,7.30
2017-11-23T08:50:38.117Z,8.10
2017-11-23T08:53:05.643Z,9.40
2017-11-23T08:55:33.200Z,9.13
2017-11-23T08:58:00.738Z,8.10
2017-11-23T09:00:29.043Z,8.10
2017-11-23T09:02:56.563Z,8.43
2017-11-23T09:05:29.739Z,7.60
2017-11-23T09:07:57.250Z,8.20
2017-11-23T09:10:24.857Z,7.30
2017-11-23T09:12:52.385Z,7.87
2017-11-23T09:15:20.846Z,6.83
2017-11-23T09:17:48.360Z,8.47
2017-11-23T09:20:15.920Z,9.37
2017-11-23T09:22:43.430Z,8.87
2017-11-23T09:25:10.982Z,7.43
2017-11-23T09:27:38.522Z,7.83
2017-11-23T09:30:06.937Z,8.77
2017-11-23T09:32:34.484Z,7.37
2017-11-23T09:35:02.003Z,7.07
2017-11-23T09:37:29.545Z,7.00
2017-11-23T09:39:57.059Z,7.20
2017-11-23T09:42:24.626Z,6.80
2017-11-23T09:44:52.150Z,6.43
2017-11-23T09:47:19.711Z,6.83
2017-11-23T09:49:47.242Z,7.63
2017-11-23T09:52:14.772Z,7.57
2017-11-23T09:54:42.307Z,6.93
2017-11-23T09:57:09.883Z,6.97
2017-11-23T09:59:37.447Z,7.60
2017-11-23T10:02:04.999Z,8.17
2017-11-23T10:04:32.517Z,9.63
2017-11-23T10:07:00.045Z,8.30
2017-11-23T10:09:27.574Z,6.90
2017-11-23T10:11:55.125Z,9.13
2017-11-23T10:14:28.321Z,6.83
2017-11-23T10:16:55.852Z,7.37
2017-11-23T10:19:23.367Z,7.20
2017-11-23T10:21:50.932Z,8.00
2017-11-23T10:24:18.440Z,6.83
2017-11-23T10:26:46.049Z,7.10
2017-11-23T10:29:13.595Z,7.97
2017-11-23T10:31:41.150Z,7.30
2017-11-23T10:34:08.666Z,7.83
2017-11-23T10:36:36.213Z,6.73
2017-11-23T10:39:03.745Z,8.90
2017-11-23T10:41:31.282Z,6.60
2017-11-23T10:43:59.582Z,7.40
2017-11-23T10:46:27.173Z,7.93
2017-11-23T10:48:54.715Z,7.80
2017-11-23T10:51:22.230Z,6.80
2017-11-23T10:53:49.758Z,9.40
2017-11-23T10:56:17.292Z,8.30
2017-11-23T10:58:44.850Z,8.03
2017-11-23T11:01:12.395Z,8.13
2017-11-23T11:03:39.953Z,8.23
2017-11-23T11:06:07.478Z,8.57
2017-11-23T11:08:35.040Z,8.63
2017-11-23T11:11:02.542Z,9.70
2017-11-23T11:13:30.093Z,9.13
2017-11-23T11:15:58.384Z,10.10
2017-11-23T11:18:26.879Z,9.17
2017-11-23T11:20:54.415Z,8.90
2017-11-23T11:23:21.979Z,9.37
2017-11-23T11:25:49.506Z,8.73
2017-11-23T11:28:17.067Z,7.97
2017-11-23T11:30:44.580Z,8.90
2017-11-23T11:33:12.125Z,9.03
2017-11-23T11:35:39.631Z,8.00
2017-11-23T11:38:07.182Z,7.73
2017-11-23T11:40:34.708Z,8.80
2017-11-23T11:43:02.335Z,8.30
2017-11-23T11:45:30.639Z,8.93
2017-11-23T11:47:58.177Z,8.10
2017-11-23T11:50:26.529Z,7.63
2017-11-23T11:52:54.084Z,7.70
2017-11-23T11:55:21.621Z,8.53
2017-11-23T11:57:49.175Z,8.47
2017-11-23T12:00:16.719Z,9.00
2017-11-23T12:02:44.295Z,8.23
2017-11-23T12:05:11.845Z,7.93
2017-11-23T12:07:39.369Z,8.13
2017-11-23T12:10:06.934Z,7.63
2017-11-23T12:12:35.227Z,7.40
2017-11-23T12:15:15.255Z,6.83
2017-11-23T12:17:45.481Z,7.57
2017-11-23T12:20:16.070Z,9.00
2017-11-23T12:23:06.018Z,8.80
2017-11-23T12:25:43.967Z,8.00
2017-11-23T12:28:23.148Z,8.00
2017-11-23T12:30:51.490Z,8.80
2017-11-23T12:33:19.010Z,7.77
2017-11-23T12:35:46.542Z,9.27
2017-11-23T12:38:14.852Z,8.70
2017-11-23T12:40:42.433Z,10.27
2017-11-23T12:43:11.152Z,8.90
2017-11-23T12:45:38.681Z,9.33
2017-11-23T12:48:06.207Z,8.80
2017-11-23T12:50:34.514Z,8.93
2017-11-23T12:53:02.524Z,8.80
2017-11-23T12:55:30.075Z,9.20
2017-11-23T12:57:57.598Z,9.33
2017-11-23T13:00:25.166Z,8.83
2017-11-23T13:02:52.696Z,9.40
2017-11-23T13:05:21.015Z,10.57
2017-11-23T13:07:48.563Z,8.83
2017-11-23T13:10:16.125Z,9.20
2017-11-23T13:12:43.687Z,9.60
2017-11-23T13:15:11.270Z,9.40
2017-11-23T13:17:38.909Z,8.67
2017-11-23T13:20:06.474Z,10.37
2017-11-23T13:22:33.991Z,10.90
2017-11-23T13:25:02.348Z,10.60
2017-11-23T13:27:29.858Z,9.23
2017-11-23T13:29:57.388Z,9.67
2017-11-23T13:32:25.658Z,9.97
2017-11-23T13:34:53.221Z,10.00
2017-11-23T13:37:20.749Z,9.93
2017-11-23T13:39:48.280Z,9.27
2017-11-23T13:42:16.722Z,9.40
2017-11-23T13:44:44.240Z,9.73
2017-11-23T13:47:11.879Z,9.07
2017-11-23T13:49:39.407Z,8.60
2017-11-23T13:52:06.962Z,9.50
2017-11-23T13:54:34.483Z,9.50
2017-11-23T13:57:02.048Z,8.63
2017-11-23T13:59:29.554Z,9.17
2017-11-23T14:01:57.066Z,9.73
2017-11-23T14:04:26.195Z,10.27
2017-11-23T14:06:53.744Z,9.60
2017-11-23T14:09:21.280Z,9.27
2017-11-23T14:11:48.802Z,9.17
2017-11-23T14:14:16.351Z,9.27
2017-11-23T14:16:44.630Z,8.50
2017-11-23T14:19:12.980Z,8.43
2017-11-23T14:21:40.494Z,9.03
2017-11-23T14:24:08.028Z,8.77
2017-11-23T14:26:36.327Z,8.80
2017-11-23T14:29:04.537Z,8.30
2017-11-23T14:31:32.185Z,9.43
2017-11-23T14:33:59.715Z,8.33
2017-11-23T14:36:30.373Z,9.60
2017-11-23T14:38:57.899Z,9.00
2017-11-23T14:41:26.525Z,9.50
2017-11-23T14:43:54.078Z,9.40
2017-11-23T14:46:21.584Z,9.20
2017-11-23T14:48:49.145Z,9.03
2017-11-23T14:51:16.680Z,7.90
2017-11-23T14:53:44.249Z,8.33
2017-11-23T14:56:11.808Z,8.23
2017-11-23T14:58:39.661Z,8.47
2017-11-23T15:01:07.265Z,8.60
2017-11-23T15:03:34.780Z,8.80
2017-11-23T15:06:02.396Z,8.30
2017-11-23T15:08:29.922Z,7.17
2017-11-23T15:10:57.968Z,7.30
2017-11-23T15:13:25.612Z,7.57
2017-11-23T15:15:53.203Z,8.33
2017-11-23T15:18:20.762Z,9.57
2017-11-23T15:20:48.442Z,8.20
2017-11-23T15:23:16.253Z,7.30
2017-11-23T15:25:43.815Z,9.43
2017-11-23T15:28:11.379Z,7.13
2017-11-23T15:30:38.943Z,7.17
2017-11-23T15:33:07.372Z,7.43
2017-11-23T15:35:35.246Z,7.30
2017-11-23T15:38:02.772Z,6.33
2017-11-23T15:40:31.077Z,7.07
2017-11-23T15:42:58.610Z,8.00
2017-11-23T15:45:26.188Z,6.67
2017-11-23T15:47:54.005Z,7.80
2017-11-23T15:50:22.302Z,8.70
2017-11-23T15:52:49.838Z,7.60
2017-11-23T15:55:18.157Z,7.90
2017-11-23T15:57:45.709Z,7.20
2017-11-23T16:00:13.700Z,8.20
2017-11-23T16:02:41.227Z,7.40
2017-11-23T16:05:08.767Z,7.70
2017-11-23T16:07:37.068Z,8.20
2017-11-23T16:10:04.619Z,7.37
2017-11-23T16:12:33.229Z,8.00
2017-11-23T16:15:00.770Z,8.20
2017-11-23T16:17:28.286Z,8.17
2017-11-23T16:19:55.864Z,7.53
2017-11-23T16:22:23.382Z,6.50
2017-11-23T16:24:51.240Z,8.47
2017-11-23T16:27:18.843Z,8.23
2017-11-23T16:29:46.380Z,10.20
2017-11-23T16:32:14.022Z,7.77
2017-11-23T16:34:41.560Z,9.53
2017-11-23T16:37:22.258Z,9.40
2017-11-23T16:39:51.615Z,7.70
2017-11-23T16:42:21.600Z,8.30
2017-11-23T16:44:54.872Z,9.60
2017-11-23T17:01:02.500Z,10.67
2017-11-23T17:03:32.502Z,9.40
2017-11-23T17:06:06.120Z,10.00
2017-11-23T17:08:40.383Z,12.80
2017-11-23T17:11:13.917Z,12.53
2017-11-23T17:13:47.082Z,10.00
2017-11-23T17:16:20.696Z,9.80
2017-11-23T17:18:51.809Z,9.03
2017-11-23T17:21:20.754Z,8.30
2017-11-23T17:23:48.295Z,8.67
2017-11-23T17:26:15.875Z,9.70
2017-11-23T17:28:43.744Z,10.80
2017-11-23T17:31:11.292Z,10.47
2017-11-23T17:33:38.823Z,11.20
2017-11-23T17:36:06.371Z,11.33
2017-11-23T17:38:33.905Z,11.80
2017-11-23T17:41:01.758Z,10.23
2017-11-23T17:43:29.335Z,10.33
2017-11-23T17:45:56.924Z,11.80
2017-11-23T17:48:24.847Z,11.90
2017-11-23T17:50:52.409Z,11.27
2017-11-23T17:53:20.146Z,11.40
2017-11-23T17:55:47.808Z,12.90
2017-11-23T17:58:15.369Z,12.83
2017-11-23T18:00:43.332Z,12.60
2017-11-23T18:03:10.894Z,11.17
2017-11-23T18:05:38.430Z,10.57
2017-11-23T18:08:06.736Z,9.27
2017-11-23T18:10:34.259Z,9.10
2017-11-23T18:13:02.847Z,8.90
2017-11-23T18:15:30.407Z,9.00
2017-11-23T18:17:58.752Z,11.97
2017-11-23T18:20:29.403Z,10.30
2017-11-23T18:22:56.971Z,11.60
2017-11-23T18:25:25.684Z,11.93
2017-11-23T18:27:53.221Z,12.97
2017-11-23T18:30:20.973Z,11.97
2017-11-23T18:32:48.526Z,10.93
2017-11-23T18:35:16.065Z,9.40
2017-11-23T18:37:44.031Z,10.47
2017-11-23T18:40:11.556Z,11.47
2017-11-23T18:42:39.395Z,10.97
2017-11-23T18:45:07.193Z,9.27
2017-11-23T18:47:34.721Z,11.33
2017-11-23T18:50:02.407Z,10.43
2017-11-23T18:52:32.389Z,9.93
2017-11-23T18:54:59.899Z,10.73
2017-11-23T18:57:27.694Z,8.40
2017-11-23T18:59:55.226Z,8.90
2017-11-23T19:02:23.100Z,8.73
2017-11-23T19:04:50.733Z,8.93
2017-11-23T19:07:18.299Z,7.47
2017-11-23T19:09:46.938Z,8.50
2017-11-23T19:12:14.448Z,7.80
2017-11-23T19:14:42.762Z,8.37
2017-11-23T19:17:10.338Z,9.60
2017-11-23T19:19:37.896Z,7.33
2017-11-23T19:22:09.309Z,8.00
2017-11-23T19:24:37.058Z,8.10
2017-11-23T19:27:05.427Z,11.00
2017-11-23T19:29:33.782Z,12.30
2017-11-23T19:32:02.565Z,7.07
2017-11-23T19:34:30.405Z,6.13
2017-11-23T19:36:57.954Z,6.00
2017-11-23T19:39:25.521Z,5.63
2017-11-23T19:41:53.146Z,5.90
2017-11-23T19:44:20.700Z,5.00
2017-11-23T19:46:48.621Z,6.93
2017-11-23T19:49:16.289Z,6.60
2017-11-23T19:51:43.916Z,8.53
2017-11-23T19:54:11.459Z,8.47
2017-11-23T19:56:39.144Z,9.27
2017-11-23T19:59:07.138Z,11.00
2017-11-23T20:01:34.775Z,9.67
2017-11-23T20:04:02.368Z,9.77
2017-11-23T20:06:29.984Z,9.83
2017-11-23T20:08:58.329Z,8.40
2017-11-23T20:13:59.689Z,8.13
2017-11-23T20:16:27.218Z,7.20
2017-11-23T20:18:55.193Z,6.97
2017-11-23T20:21:22.794Z,8.00
2017-11-23T20:23:50.400Z,8.93
2017-11-23T20:26:18.060Z,9.80
2017-11-23T20:28:46.038Z,9.63
2017-11-23T20:31:13.987Z,8.27
2017-11-23T20:33:41.576Z,9.10
2017-11-23T20:36:09.150Z,8.97
2017-11-23T20:38:37.223Z,10.07
2017-11-23T20:41:04.802Z,10.10
2017-11-23T20:43:32.433Z,10.40
2017-11-23T20:46:00.310Z,11.00
2017-11-23T20:48:27.877Z,9.03
2017-11-23T20:50:55.533Z,10.67
2017-11-23T20:53:23.729Z,12.07
2017-11-23T20:55:51.334Z,12.07
2017-11-23T20:58:18.937Z,10.20
2017-11-23T21:00:46.868Z,9.83
2017-11-23T21:03:14.498Z,11.10
2017-11-23T21:05:42.133Z,9.40
2017-11-23T21:08:10.167Z,12.97
2017-11-23T21:10:37.753Z,9.37
2017-11-23T21:13:05.294Z,10.97
2017-11-23T21:15:33.211Z,10.50
2017-11-23T21:18:00.806Z,10.83
2017-11-23T21:20:28.404Z,10.57
2017-11-23T21:22:56.210Z,11.13
2017-11-23T21:25:23.811Z,11.60
2017-11-23T21:27:51.375Z,10.70
2017-11-23T21:30:19.298Z,10.90
2017-11-23T21:32:46.895Z,10.20
2017-11-23T21:35:14.503Z,10.30
2017-11-23T21:37:42.369Z,9.30
2017-11-23T21:40:09.924Z,9.23
2017-11-23T21:42:37.501Z,8.07
2017-11-23T21:45:05.360Z,8.57
2017-11-23T21:47:33.038Z,8.53
2017-11-23T21:50:00.627Z,7.87
2017-11-23T21:52:28.514Z,7.80
2017-11-23T21:54:56.800Z,7.60
2017-11-23T21:57:25.121Z,7.47
2017-11-23T21:59:52.767Z,8.63
2017-11-23T22:02:20.286Z,6.70
2017-11-23T22:04:48.608Z,8.70
2017-11-23T22:07:16.226Z,8.70
2017-11-23T22:09:44.570Z,8.83
2017-11-23T22:12:12.216Z,7.80
2017-11-23T22:14:39.799Z,8.20
2017-11-23T22:17:07.440Z,8.80
2017-11-23T22:19:34.999Z,7.80
2017-11-23T22:22:02.877Z,8.43
2017-11-23T22:24:30.432Z,7.30
2017-11-23T22:26:57.981Z,7.17
2017-11-23T22:29:25.541Z,6.67
2017-11-23T22:31:53.079Z,7.57
2017-11-23T22:34:21.007Z,7.27
2017-11-23T22:36:48.582Z,8.17
2017-11-23T22:39:16.116Z,8.20
2017-11-23T22:41:43.682Z,8.30
2017-11-23T22:44:11.238Z,7.97
2017-11-23T22:46:38.802Z,8.03
2017-11-23T22:49:06.332Z,8.70
2017-11-23T22:51:34.146Z,9.07
2017-11-23T22:54:01.677Z,8.50
2017-11-23T22:56:29.219Z,8.33
2017-11-23T22:58:56.758Z,7.60
2017-11-23T23:01:24.284Z,7.70
2017-11-23T23:03:52.130Z,7.83
2017-11-23T23:06:19.671Z,8.57
2017-11-23T23:08:47.200Z,8.10
2017-11-23T23:11:15.511Z,8.83
2017-11-23T23:13:43.022Z,8.00
2017-11-23T23:16:11.654Z,8.77
2017-11-23T23:18:39.174Z,8.87
2017-11-23T23:21:07.457Z,9.63
2017-11-23T23:23:35.784Z,8.90
2017-11-23T23:26:03.324Z,8.97
2017-11-23T23:28:31.190Z,11.43
2017-11-23T23:30:58.721Z,9.10
2017-11-23T23:33:27.003Z,8.20
2017-11-23T23:35:55.299Z,9.60
2017-11-23T23:38:22.811Z,9.67
2017-11-23T23:40:50.631Z,10.60
2017-11-23T23:43:18.142Z,10.13
2017-11-23T23:45:45.662Z,9.33
2017-11-23T23:48:13.207Z,8.90
2017-11-23T23:50:41.497Z,9.50
2017-11-23T23:53:09.306Z,9.60
2017-11-23T23:55:36.815Z,9.17
2017-11-23T23:58:04.354Z,9.80
